createdAt,value
2023-05-06T00:00:22.585Z,95064.72
2023-05-06T00:03:06.463Z,95061.94
2023-05-06T00:05:49.807Z,95054.41
2023-05-06T00:08:33.215Z,95050.03
2023-05-06T00:11:16.585Z,95058.78
2023-05-06T00:13:59.895Z,95058.19
2023-05-06T00:16:46.200Z,95054.41
2023-05-06T00:19:30.479Z,95056.59
2023-05-06T00:22:14.865Z,95048.06
2023-05-06T00:24:58.064Z,95050.81
2023-05-06T00:27:41.200Z,95048.44
2023-05-06T00:30:25.693Z,95054.00
2023-05-06T00:33:10.525Z,95051.25
2023-05-06T00:35:53.959Z,95052.00
2023-05-06T00:38:37.278Z,95062.34
2023-05-06T00:41:20.488Z,95059.38
2023-05-06T00:44:03.930Z,95051.66
2023-05-06T00:46:47.406Z,95050.06
2023-05-06T00:49:32.170Z,95055.59
2023-05-06T00:52:16.234Z,95053.63
2023-05-06T00:54:59.575Z,95055.22
2023-05-06T00:57:43.474Z,95047.84
2023-05-06T01:00:26.937Z,95046.06
2023-05-06T01:03:10.417Z,95055.00
2023-05-06T01:06:05.634Z,95049.25
2023-05-06T01:08:56.434Z,95044.47
2023-05-06T01:11:46.898Z,95041.50
2023-05-06T01:14:37.405Z,95048.66
2023-05-06T01:17:21.789Z,95046.47
2023-05-06T01:20:10.802Z,95043.28
2023-05-06T01:22:56.160Z,95050.66
2023-05-06T01:25:40.848Z,95047.44
2023-05-06T01:28:23.965Z,95057.19
2023-05-06T01:31:13.320Z,95048.44
2023-05-06T01:34:06.714Z,95049.03
2023-05-06T01:37:00.534Z,95039.09
2023-05-06T01:39:45.871Z,95037.91
2023-05-06T01:42:32.273Z,95034.53
2023-05-06T01:45:17.221Z,95039.31
2023-05-06T01:48:01.046Z,95034.94
2023-05-06T01:50:44.913Z,95044.44
2023-05-06T01:53:28.188Z,95043.28
2023-05-06T01:56:14.117Z,95044.66
2023-05-06T01:58:59.808Z,95041.25
2023-05-06T02:01:43.379Z,95045.25
2023-05-06T02:04:27.046Z,95046.59
2023-05-06T02:07:10.368Z,95050.78
2023-05-06T02:09:53.774Z,95043.03
2023-05-06T02:12:37.276Z,95044.00
2023-05-06T02:15:24.213Z,95042.41
2023-05-06T02:18:07.588Z,95042.59
2023-05-06T02:20:51.233Z,95044.00
2023-05-06T02:23:35.227Z,95036.06
2023-05-06T02:26:18.452Z,95045.78
2023-05-06T02:29:01.731Z,95041.22
2023-05-06T02:31:46.748Z,95038.84
2023-05-06T02:34:29.910Z,95038.03
2023-05-06T02:37:13.124Z,95041.22
2023-05-06T02:39:56.694Z,95036.06
2023-05-06T02:42:40.969Z,95044.78
2023-05-06T02:45:24.631Z,95048.38
2023-05-06T02:48:11.420Z,95042.78
2023-05-06T02:50:54.979Z,95042.41
2023-05-06T02:53:38.522Z,95045.97
2023-05-06T02:56:21.734Z,95048.91
2023-05-06T02:59:05.258Z,95061.47
2023-05-06T03:01:48.491Z,95059.69
2023-05-06T03:04:33.498Z,95060.66
2023-05-06T03:07:16.711Z,95056.06
2023-05-06T03:10:00.281Z,95054.88
2023-05-06T03:12:44.409Z,95056.66
2023-05-06T03:15:29.075Z,95043.34
2023-05-06T03:18:12.763Z,95060.22
2023-05-06T03:20:57.484Z,95068.09
2023-05-06T03:23:41.246Z,95066.56
2023-05-06T03:26:25.712Z,95071.72
2023-05-06T03:29:09.002Z,95070.94
2023-05-06T03:31:52.382Z,95065.63
2023-05-06T03:34:36.176Z,95071.19
2023-05-06T03:37:20.801Z,95071.25
2023-05-06T03:40:04.936Z,95070.47
2023-05-06T03:42:48.418Z,95080.63
2023-05-06T03:45:31.650Z,95078.66
2023-05-06T03:48:14.912Z,95082.25
2023-05-06T03:50:58.410Z,95085.84
2023-05-06T03:53:43.071Z,95079.88
2023-05-06T03:56:26.594Z,95082.28
2023-05-06T03:59:10.237Z,95086.03
2023-05-06T04:01:53.701Z,95086.38
2023-05-06T04:04:37.040Z,95081.81
2023-05-06T04:07:20.306Z,95079.00
2023-05-06T04:10:05.444Z,95083.00
2023-05-06T04:12:48.739Z,95074.78
2023-05-06T04:15:34.763Z,95084.16
2023-05-06T04:18:20.077Z,95089.72
2023-05-06T04:21:06.057Z,95090.81
2023-05-06T04:23:49.406Z,95085.97
2023-05-06T04:26:33.921Z,95093.09
2023-05-06T04:29:17.135Z,95089.84
2023-05-06T04:32:00.633Z,95088.19
2023-05-06T04:34:43.833Z,95100.09
2023-05-06T04:37:28.477Z,95099.97
2023-05-06T04:40:13.897Z,95110.25
2023-05-06T04:42:58.628Z,95097.94
2023-05-06T04:45:51.912Z,95101.91
2023-05-06T04:48:35.200Z,95108.91
2023-05-06T04:51:18.555Z,95105.59
2023-05-06T04:54:02.156Z,95112.53
2023-05-06T04:56:45.803Z,95107.88
2023-05-06T04:59:30.508Z,95121.34
2023-05-06T05:02:13.755Z,95114.91
2023-05-06T05:04:58.792Z,95125.28
2023-05-06T05:07:42.117Z,95124.88
2023-05-06T05:10:25.954Z,95120.50
2023-05-06T05:13:09.530Z,95123.56
2023-05-06T05:15:57.475Z,95126.28
2023-05-06T05:18:40.957Z,95125.81
2023-05-06T05:21:24.429Z,95130.09
2023-05-06T05:24:07.932Z,95127.84
2023-05-06T05:26:51.146Z,95131.94
2023-05-06T05:29:35.008Z,95123.34
2023-05-06T05:32:20.340Z,95120.50
2023-05-06T05:35:03.526Z,95127.88
2023-05-06T05:37:47.547Z,95127.41
2023-05-06T05:40:32.105Z,95117.31
2023-05-06T05:43:15.524Z,95125.34
2023-05-06T05:45:59.110Z,95117.78
2023-05-06T05:48:43.854Z,95123.34
2023-05-06T05:51:27.095Z,95123.47
2023-05-06T05:54:10.321Z,95130.81
2023-05-06T05:56:53.589Z,95133.31
2023-05-06T05:59:38.460Z,95141.78
2023-05-06T06:02:21.846Z,95134.44
2023-05-06T06:05:07.789Z,95138.28
2023-05-06T06:07:53.748Z,95141.91
2023-05-06T06:10:36.804Z,95136.94
2023-05-06T06:13:20.095Z,95142.25
2023-05-06T06:16:03.914Z,95142.03
2023-05-06T06:18:47.510Z,95139.75
2023-05-06T06:21:32.290Z,95147.56
2023-05-06T06:24:15.387Z,95150.38
2023-05-06T06:26:58.698Z,95143.28
2023-05-06T06:29:44.246Z,95140.09
2023-05-06T06:32:27.416Z,95135.19
2023-05-06T06:35:10.993Z,95136.19
2023-05-06T06:37:56.562Z,95136.03
2023-05-06T06:40:40.051Z,95131.56
2023-05-06T06:43:24.821Z,95147.50
2023-05-06T06:46:08.045Z,95146.63
2023-05-06T06:48:51.529Z,95153.97
2023-05-06T06:51:34.665Z,95161.84
2023-05-06T06:54:19.516Z,95150.38
2023-05-06T06:57:02.800Z,95149.44
2023-05-06T06:59:47.759Z,95137.69
2023-05-06T07:02:31.083Z,95146.91
2023-05-06T07:05:15.361Z,95149.72
2023-05-06T07:07:58.525Z,95150.66
2023-05-06T07:10:43.097Z,95156.47
2023-05-06T07:13:26.580Z,95147.53
2023-05-06T07:16:10.047Z,95150.16
2023-05-06T07:18:54.450Z,95147.34
2023-05-06T07:21:37.680Z,95144.03
2023-05-06T07:24:20.909Z,95140.81
2023-05-06T07:27:05.554Z,95151.91
2023-05-06T07:29:48.833Z,95160.34
2023-05-06T07:32:32.597Z,95149.81
2023-05-06T07:35:15.779Z,95161.41
2023-05-06T07:37:59.409Z,95157.53
2023-05-06T07:40:42.624Z,95150.84
2023-05-06T07:43:27.281Z,95152.84
2023-05-06T07:46:10.680Z,95143.16
2023-05-06T07:48:54.145Z,95142.50
2023-05-06T07:51:37.744Z,95137.53
2023-05-06T07:54:20.920Z,95137.31
2023-05-06T07:57:04.158Z,95144.38
2023-05-06T07:59:51.155Z,95142.88
2023-05-06T08:02:34.653Z,95140.59
2023-05-06T08:05:18.286Z,95137.88
2023-05-06T08:08:01.947Z,95139.94
2023-05-06T08:10:45.724Z,95143.34
2023-05-06T08:13:29.362Z,95134.25
2023-05-06T08:16:14.818Z,95144.66
2023-05-06T08:18:58.964Z,95145.06
2023-05-06T08:21:42.676Z,95142.09
2023-05-06T08:24:25.828Z,95142.44
2023-05-06T08:27:09.271Z,95145.94
2023-05-06T08:29:52.704Z,95151.22
2023-05-06T08:32:37.351Z,95148.03
2023-05-06T08:35:22.072Z,95131.19
2023-05-06T08:38:05.435Z,95141.50
2023-05-06T08:40:50.652Z,95141.84
2023-05-06T08:43:41.518Z,95142.53
2023-05-06T08:46:25.106Z,95151.88
2023-05-06T08:49:11.192Z,95144.59
2023-05-06T08:51:54.501Z,95150.28
2023-05-06T08:54:38.713Z,95153.50
2023-05-06T08:57:23.111Z,95149.06
2023-05-06T09:00:11.228Z,95147.28
2023-05-06T09:02:54.789Z,95143.00
2023-05-06T09:05:42.873Z,95146.75
2023-05-06T09:08:26.205Z,95139.47
2023-05-06T09:11:25.438Z,95133.00
2023-05-06T09:14:11.015Z,95137.22
2023-05-06T09:16:54.341Z,95135.28
2023-05-06T09:19:39.857Z,95134.41
2023-05-06T09:22:24.644Z,95126.16
2023-05-06T09:25:10.021Z,95115.88
2023-05-06T09:28:06.782Z,95116.75
2023-05-06T09:30:52.259Z,95112.31
2023-05-06T09:33:37.448Z,95116.22
2023-05-06T09:36:21.006Z,95114.06
2023-05-06T09:39:11.343Z,95102.59
2023-05-06T09:41:55.734Z,95103.94
2023-05-06T09:45:02.316Z,95105.72
2023-05-06T09:47:46.104Z,95101.75
2023-05-06T09:50:29.968Z,95094.91
2023-05-06T09:53:14.345Z,95098.69
2023-05-06T09:56:00.637Z,95098.13
2023-05-06T09:58:47.210Z,95100.59
2023-05-06T10:01:36.921Z,95105.88
2023-05-06T10:04:27.317Z,95108.06
2023-05-06T10:07:13.842Z,95095.97
2023-05-06T10:10:00.278Z,95094.09
2023-05-06T10:12:49.119Z,95098.34
2023-05-06T10:15:34.363Z,95100.53
2023-05-06T10:18:20.512Z,95082.78
2023-05-06T10:21:23.261Z,95090.63
2023-05-06T10:24:11.634Z,95085.72
2023-05-06T10:26:57.802Z,95086.25
2023-05-06T10:29:43.170Z,95083.63
2023-05-06T10:32:29.171Z,95089.72
2023-05-06T10:35:32.249Z,95087.34
2023-05-06T10:38:23.663Z,95084.88
2023-05-06T10:41:09.453Z,95079.84
2023-05-06T10:43:57.070Z,95084.81
2023-05-06T10:46:58.505Z,95081.56
2023-05-06T10:49:41.850Z,95077.19
2023-05-06T10:52:25.034Z,95083.47
2023-05-06T10:55:26.831Z,95087.06
2023-05-06T10:58:15.160Z,95076.97
2023-05-06T11:00:59.701Z,95080.88
2023-05-06T11:03:45.126Z,95079.44
2023-05-06T11:06:36.509Z,95065.66
2023-05-06T11:09:20.912Z,95070.75
2023-05-06T11:12:07.145Z,95076.69
2023-05-06T11:14:50.993Z,95085.53
2023-05-06T11:17:35.110Z,95073.66
2023-05-06T11:20:38.425Z,95072.63
2023-05-06T11:23:22.004Z,95078.19
2023-05-06T11:26:08.999Z,95074.22
2023-05-06T11:28:53.590Z,95068.69
2023-05-06T11:31:42.462Z,95067.66
2023-05-06T11:34:28.131Z,95069.78
2023-05-06T11:37:11.648Z,95071.53
2023-05-06T11:39:55.125Z,95064.16
2023-05-06T11:42:38.332Z,95066.84
2023-05-06T11:45:23.764Z,95061.63
2023-05-06T11:48:07.505Z,95066.22
2023-05-06T11:50:51.225Z,95063.72
2023-05-06T11:53:34.410Z,95066.03
2023-05-06T11:56:17.590Z,95071.13
2023-05-06T11:59:00.811Z,95049.22
2023-05-06T12:01:46.583Z,95058.50
2023-05-06T12:04:37.797Z,95054.91
2023-05-06T12:07:21.252Z,95055.00
2023-05-06T12:10:05.107Z,95050.97
2023-05-06T12:12:48.477Z,95045.00
2023-05-06T12:15:34.235Z,95053.84
2023-05-06T12:18:19.277Z,95044.34
2023-05-06T12:21:03.897Z,95043.63
2023-05-06T12:23:54.254Z,95044.78
2023-05-06T12:26:45.874Z,95039.88
2023-05-06T12:29:31.867Z,95048.78
2023-05-06T12:32:15.416Z,95034.84
2023-05-06T12:35:00.957Z,95037.50
2023-05-06T12:37:46.091Z,95030.69
2023-05-06T12:40:29.504Z,95029.72
2023-05-06T12:43:13.966Z,95032.56
2023-05-06T12:46:05.225Z,95020.72
2023-05-06T12:49:21.344Z,95029.16
2023-05-06T12:52:10.574Z,95032.78
2023-05-06T12:54:53.974Z,95029.09
2023-05-06T12:57:37.389Z,95026.97
2023-05-06T13:00:21.237Z,95037.16
2023-05-06T13:03:08.127Z,95033.84
2023-05-06T13:05:53.024Z,95034.38
2023-05-06T13:08:37.544Z,95036.03
2023-05-06T13:11:22.351Z,95040.84
2023-05-06T13:14:05.547Z,95037.78
2023-05-06T13:16:49.612Z,95036.50
2023-05-06T13:19:33.552Z,95033.41
2023-05-06T13:22:17.075Z,95035.72
2023-05-06T13:25:01.694Z,95029.72
2023-05-06T13:27:44.907Z,95032.53
2023-05-06T13:30:28.286Z,95023.84
2023-05-06T13:33:11.390Z,95029.91
2023-05-06T13:35:57.584Z,95018.88
2023-05-06T13:38:40.825Z,95018.72
2023-05-06T13:41:27.055Z,95030.47
2023-05-06T13:44:10.507Z,95015.34
2023-05-06T13:46:54.011Z,95018.31
2023-05-06T13:49:37.232Z,95017.63
2023-05-06T13:52:20.746Z,95013.44
2023-05-06T13:55:03.966Z,95009.97
2023-05-06T13:57:48.709Z,95026.66
2023-05-06T14:00:31.869Z,95021.34
2023-05-06T14:03:15.366Z,95016.19
2023-05-06T14:05:58.779Z,95011.47
2023-05-06T14:08:42.356Z,95003.34
2023-05-06T14:11:25.845Z,95001.84
2023-05-06T14:14:10.481Z,95003.25
2023-05-06T14:16:54.818Z,95004.84
2023-05-06T14:19:38.098Z,95018.19
2023-05-06T14:22:21.330Z,95002.91
2023-05-06T14:25:04.710Z,95010.78
2023-05-06T14:27:48.040Z,95001.75
2023-05-06T14:30:34.365Z,95012.38
2023-05-06T14:33:17.906Z,95012.88
2023-05-06T14:36:03.481Z,95024.34
2023-05-06T14:38:48.069Z,95030.31
2023-05-06T14:41:31.494Z,95024.09
2023-05-06T14:44:16.363Z,95020.28
2023-05-06T14:47:01.930Z,95024.28
2023-05-06T14:49:45.601Z,95022.88
2023-05-06T14:52:29.126Z,95020.31
2023-05-06T14:55:12.704Z,95016.69
2023-05-06T14:57:56.433Z,95018.06
2023-05-06T15:00:40.129Z,95018.34
2023-05-06T15:03:25.410Z,95018.31
2023-05-06T15:06:08.714Z,95017.25
2023-05-06T15:08:52.327Z,95012.78
2023-05-06T15:11:35.589Z,95019.03
2023-05-06T15:14:21.621Z,95011.88
2023-05-06T15:17:05.003Z,95011.50
2023-05-06T15:19:49.876Z,95012.69
2023-05-06T15:22:33.075Z,95009.06
2023-05-06T15:25:33.363Z,95001.56
2023-05-06T15:28:18.290Z,94998.97
2023-05-06T15:31:01.581Z,95008.88
2023-05-06T15:33:44.867Z,95009.47
2023-05-06T15:36:32.436Z,95009.16
2023-05-06T15:39:15.624Z,95008.88
2023-05-06T15:42:01.313Z,95002.63
2023-05-06T15:44:45.556Z,95005.56
2023-05-06T15:47:28.717Z,95014.53
2023-05-06T15:50:24.735Z,95011.69
2023-05-06T15:53:17.220Z,95012.50
2023-05-06T15:56:13.255Z,95010.97
2023-05-06T15:59:01.558Z,95015.22
2023-05-06T16:04:32.690Z,95008.91
2023-05-06T16:07:16.823Z,95012.88
2023-05-06T16:10:01.875Z,95008.16
2023-05-06T16:12:45.394Z,95009.97
2023-05-06T16:15:28.982Z,95008.38
2023-05-06T16:18:13.841Z,95013.16
2023-05-06T16:20:57.726Z,95011.03
2023-05-06T16:23:40.962Z,95009.97
2023-05-06T16:26:26.853Z,95007.34
2023-05-06T16:29:10.296Z,95010.50
2023-05-06T16:31:53.549Z,95007.63
2023-05-06T16:34:40.349Z,95005.50
2023-05-06T16:37:24.075Z,95002.09
2023-05-06T16:40:09.617Z,95006.81
2023-05-06T16:42:54.409Z,95008.41
2023-05-06T16:45:38.399Z,95011.81
2023-05-06T16:48:21.760Z,95015.75
2023-05-06T16:51:05.447Z,95017.84
2023-05-06T16:53:49.016Z,95012.59
2023-05-06T16:56:44.123Z,95017.78
2023-05-06T16:59:35.898Z,95019.09
2023-05-06T17:02:20.804Z,95026.72
2023-05-06T17:05:04.348Z,95030.84
2023-05-06T17:07:49.160Z,95035.50
2023-05-06T17:10:33.463Z,95032.09
2023-05-06T17:13:16.654Z,95032.28
2023-05-06T17:16:01.409Z,95035.88
2023-05-06T17:18:44.526Z,95041.28
2023-05-06T17:21:27.977Z,95047.00
2023-05-06T17:24:11.687Z,95049.47
2023-05-06T17:26:54.938Z,95050.97
2023-05-06T17:29:38.581Z,95060.66
2023-05-06T17:32:23.734Z,95056.88
2023-05-06T17:35:08.058Z,95055.66
2023-05-06T17:37:51.519Z,95056.06
2023-05-06T17:40:35.551Z,95059.06
2023-05-06T17:43:19.221Z,95063.75
2023-05-06T17:46:02.546Z,95060.56
2023-05-06T17:48:47.188Z,95065.13
2023-05-06T17:51:30.349Z,95066.00
2023-05-06T17:54:13.928Z,95072.16
2023-05-06T17:56:57.250Z,95072.63
2023-05-06T17:59:40.503Z,95078.53
2023-05-06T18:02:24.108Z,95088.56
2023-05-06T18:05:10.012Z,95091.59
2023-05-06T18:07:54.749Z,95093.81
2023-05-06T18:10:39.034Z,95099.22
2023-05-06T18:13:25.043Z,95106.50
2023-05-06T18:16:09.835Z,95104.16
2023-05-06T18:18:53.093Z,95106.66
2023-05-06T18:21:37.700Z,95105.41
2023-05-06T18:24:21.695Z,95114.44
2023-05-06T18:27:05.216Z,95113.94
2023-05-06T18:29:48.699Z,95119.66
2023-05-06T18:32:32.932Z,95115.63
2023-05-06T18:35:16.160Z,95119.63
2023-05-06T18:38:01.180Z,95113.63
2023-05-06T18:40:45.008Z,95123.25
2023-05-06T18:43:29.110Z,95125.66
2023-05-06T18:46:12.512Z,95121.00
2023-05-06T18:48:56.791Z,95122.47
2023-05-06T18:51:40.040Z,95127.50
2023-05-06T18:54:24.881Z,95131.19
2023-05-06T18:57:08.352Z,95136.47
2023-05-06T18:59:52.439Z,95134.44
2023-05-06T19:02:35.725Z,95140.59
2023-05-06T19:05:19.746Z,95148.94
2023-05-06T19:08:05.200Z,95139.56
2023-05-06T19:10:50.075Z,95146.19
2023-05-06T19:13:33.452Z,95138.59
2023-05-06T19:16:16.990Z,95144.88
2023-05-06T19:19:00.172Z,95156.53
2023-05-06T19:21:43.446Z,95154.81
2023-05-06T19:24:27.043Z,95158.56
2023-05-06T19:27:12.006Z,95148.94
2023-05-06T19:29:57.903Z,95148.47
2023-05-06T19:32:41.273Z,95154.16
2023-05-06T19:35:24.479Z,95149.41
2023-05-06T19:38:08.192Z,95147.69
2023-05-06T19:40:53.782Z,95155.72
2023-05-06T19:43:44.076Z,95155.81
2023-05-06T19:46:27.528Z,95150.41
2023-05-06T19:49:11.091Z,95157.53
2023-05-06T19:51:54.461Z,95154.50
2023-05-06T19:54:37.557Z,95154.25
2023-05-06T19:57:20.903Z,95162.84
2023-05-06T20:00:10.289Z,95159.88
2023-05-06T20:02:53.916Z,95158.41
2023-05-06T20:05:37.083Z,95154.31
2023-05-06T20:08:20.406Z,95156.91
2023-05-06T20:11:05.789Z,95154.31
2023-05-06T20:13:49.312Z,95158.50
2023-05-06T20:16:33.816Z,95157.22
2023-05-06T20:19:17.864Z,95154.16
2023-05-06T20:22:04.399Z,95156.97
2023-05-06T20:24:47.795Z,95157.28
2023-05-06T20:27:31.407Z,95151.91
2023-05-06T20:30:14.982Z,95156.41
2023-05-06T20:33:00.035Z,95155.84
2023-05-06T20:35:43.324Z,95161.94
2023-05-06T20:38:28.286Z,95154.44
2023-05-06T20:41:11.414Z,95159.31
2023-05-06T20:43:55.694Z,95164.97
2023-05-06T20:46:39.758Z,95154.22
2023-05-06T20:49:24.696Z,95155.94
2023-05-06T20:52:11.355Z,95153.75
2023-05-06T20:54:56.150Z,95157.69
2023-05-06T20:57:43.542Z,95157.34
2023-05-06T21:00:27.139Z,95154.38
2023-05-06T21:03:10.504Z,95164.44
2023-05-06T21:05:56.589Z,95161.25
2023-05-06T21:08:41.687Z,95166.91
2023-05-06T21:11:24.886Z,95167.66
2023-05-06T21:14:09.085Z,95164.84
2023-05-06T21:16:52.891Z,95164.72
2023-05-06T21:19:36.511Z,95161.13
2023-05-06T21:22:22.399Z,95158.00
2023-05-06T21:25:06.818Z,95162.41
2023-05-06T21:27:50.305Z,95160.69
2023-05-06T21:30:33.906Z,95163.13
2023-05-06T21:33:17.861Z,95163.00
2023-05-06T21:36:01.501Z,95159.38
2023-05-06T21:38:46.413Z,95159.91
2023-05-06T21:41:29.813Z,95151.81
2023-05-06T21:44:14.446Z,95154.19
2023-05-06T21:46:57.771Z,95157.66
2023-05-06T21:49:40.962Z,95164.88
2023-05-06T21:52:27.213Z,95164.50
2023-05-06T21:55:12.512Z,95152.97
2023-05-06T21:57:56.230Z,95156.34
2023-05-06T22:00:39.361Z,95156.19
2023-05-06T22:03:24.934Z,95153.03
2023-05-06T22:06:08.386Z,95154.25
2023-05-06T22:08:51.595Z,95151.72
2023-05-06T22:11:37.569Z,95160.50
2023-05-06T22:14:24.349Z,95160.09
2023-05-06T22:17:10.948Z,95158.34
2023-05-06T22:19:54.586Z,95148.53
2023-05-06T22:22:38.465Z,95155.19
2023-05-06T22:25:21.952Z,95160.38
2023-05-06T22:28:07.669Z,95158.91
2023-05-06T22:30:50.888Z,95149.22
2023-05-06T22:33:34.024Z,95152.28
2023-05-06T22:36:17.253Z,95154.13
2023-05-06T22:39:00.537Z,95154.53
2023-05-06T22:41:44.961Z,95150.53
2023-05-06T22:44:29.774Z,95147.34
2023-05-06T22:47:12.953Z,95153.75
2023-05-06T22:49:56.609Z,95145.75
2023-05-06T22:52:40.028Z,95146.75
2023-05-06T22:55:23.573Z,95142.94
2023-05-06T22:58:06.920Z,95136.97
2023-05-06T23:00:51.542Z,95146.16
2023-05-06T23:03:37.455Z,95142.56
2023-05-06T23:06:22.488Z,95132.88
2023-05-06T23:09:06.814Z,95136.69
2023-05-06T23:11:50.034Z,95142.22
2023-05-06T23:14:33.427Z,95130.28
2023-05-06T23:17:18.318Z,95133.56
2023-05-06T23:20:02.456Z,95131.09
2023-05-06T23:22:45.736Z,95133.97
2023-05-06T23:25:30.351Z,95139.47
2023-05-06T23:28:13.684Z,95129.69
2023-05-06T23:30:56.848Z,95133.28
2023-05-06T23:33:41.423Z,95134.34
2023-05-06T23:36:24.709Z,95131.75
2023-05-06T23:39:11.522Z,95137.16
2023-05-06T23:41:54.933Z,95144.78
2023-05-06T23:44:38.665Z,95140.84
2023-05-06T23:47:22.026Z,95139.69
2023-05-06T23:50:07.424Z,95138.47
2023-05-06T23:52:50.991Z,95134.50
2023-05-06T23:55:34.195Z,95141.72
2023-05-06T23:58:17.295Z,95146.94
